createdAt,value
2017-12-08T00:00:50.262Z,7.33
2017-12-08T00:03:24.047Z,6.17
2017-12-08T00:05:57.435Z,5.83
2017-12-08T00:08:31.435Z,6.33
2017-12-08T00:11:04.858Z,4.50
2017-12-08T00:13:38.589Z,5.67
2017-12-08T00:16:12.117Z,5.67
2017-12-08T00:18:45.786Z,5.33
2017-12-08T00:21:19.374Z,5.17
2017-12-08T00:23:53.650Z,5.00
2017-12-08T00:26:27.207Z,5.83
2017-12-08T00:29:00.849Z,5.00
2017-12-08T00:31:34.321Z,5.17
2017-12-08T00:34:08.044Z,5.00
2017-12-08T00:36:41.924Z,5.33
2017-12-08T00:39:15.604Z,5.67
2017-12-08T00:41:49.254Z,5.00
2017-12-08T00:44:22.781Z,5.00
2017-12-08T00:46:56.258Z,4.00
2017-12-08T00:49:30.149Z,5.00
2017-12-08T00:52:03.797Z,3.33
2017-12-08T00:54:37.434Z,3.00
2017-12-08T00:57:10.901Z,5.17
2017-12-08T00:59:44.694Z,2.33
2017-12-08T01:02:18.633Z,4.33
2017-12-08T01:04:52.145Z,3.00
2017-12-08T01:07:25.841Z,3.00
2017-12-08T01:09:59.606Z,3.00
2017-12-08T01:12:33.317Z,2.67
2017-12-08T01:15:07.013Z,2.83
2017-12-08T01:17:41.117Z,2.33
2017-12-08T01:20:14.657Z,3.00
2017-12-08T01:22:48.292Z,2.00
2017-12-08T01:25:22.004Z,3.00
2017-12-08T01:27:55.607Z,2.67
2017-12-08T01:30:29.193Z,2.33
2017-12-08T01:33:03.052Z,2.67
2017-12-08T01:35:36.709Z,2.00
2017-12-08T01:38:10.301Z,2.00
2017-12-08T01:40:43.902Z,2.00
2017-12-08T01:43:17.421Z,2.00
2017-12-08T01:45:50.964Z,2.83
2017-12-08T01:48:24.636Z,2.00
2017-12-08T01:50:58.084Z,2.00
2017-12-08T01:53:31.609Z,2.00
2017-12-08T01:56:05.161Z,2.33
2017-12-08T01:58:39.642Z,2.00
2017-12-08T02:01:13.308Z,2.00
2017-12-08T02:03:47.274Z,2.00
2017-12-08T02:06:20.791Z,2.17
2017-12-08T02:08:54.243Z,2.67
2017-12-08T02:11:27.780Z,2.17
2017-12-08T02:14:01.440Z,2.00
2017-12-08T02:16:35.083Z,3.00
2017-12-08T02:19:09.007Z,2.33
2017-12-08T02:21:42.711Z,2.67
2017-12-08T02:24:16.025Z,2.17
2017-12-08T02:26:50.065Z,2.83
2017-12-08T02:29:23.563Z,2.83
2017-12-08T02:31:57.302Z,3.33
2017-12-08T02:34:30.998Z,2.50
2017-12-08T02:37:04.632Z,2.83
2017-12-08T02:39:38.519Z,1.83
2017-12-08T02:42:12.110Z,2.33
2017-12-08T02:44:45.477Z,2.00
2017-12-08T02:47:19.050Z,1.83
2017-12-08T02:49:52.509Z,1.83
2017-12-08T02:52:26.527Z,2.00
2017-12-08T02:55:00.049Z,3.33
2017-12-08T02:57:33.646Z,2.33
2017-12-08T03:00:07.284Z,3.00
2017-12-08T03:02:40.932Z,2.00
2017-12-08T03:05:14.786Z,4.50
2017-12-08T03:07:48.485Z,2.00
2017-12-08T03:10:22.428Z,4.17
2017-12-08T03:12:56.099Z,2.33
2017-12-08T03:15:29.617Z,2.83
2017-12-08T03:18:03.312Z,4.17
2017-12-08T03:20:37.667Z,2.33
2017-12-08T03:23:11.302Z,3.33
2017-12-08T03:25:44.874Z,3.33
2017-12-08T03:28:18.519Z,4.67
2017-12-08T03:30:52.369Z,2.00
2017-12-08T03:33:25.862Z,4.83
2017-12-08T03:35:59.554Z,2.83
2017-12-08T03:38:33.649Z,4.67
2017-12-08T03:41:07.388Z,3.33
2017-12-08T03:43:40.997Z,3.33
2017-12-08T03:46:14.993Z,3.33
2017-12-08T03:48:48.515Z,3.50
2017-12-08T03:51:22.190Z,4.67
2017-12-08T03:53:55.818Z,5.00
2017-12-08T03:56:29.257Z,3.83
2017-12-08T03:59:02.836Z,2.17
2017-12-08T04:01:36.974Z,3.17
2017-12-08T04:04:10.614Z,3.33
2017-12-08T04:06:44.230Z,2.67
2017-12-08T04:09:17.675Z,3.33
2017-12-08T04:11:51.410Z,3.17
2017-12-08T04:14:25.013Z,4.17
2017-12-08T04:16:59.142Z,2.00
2017-12-08T04:19:32.850Z,3.67
2017-12-08T04:22:06.739Z,3.33
2017-12-08T04:24:40.389Z,3.17
2017-12-08T04:27:14.322Z,2.83
2017-12-08T04:29:48.256Z,3.50
2017-12-08T04:32:21.993Z,4.17
2017-12-08T04:34:56.403Z,4.71
2017-12-08T04:37:30.299Z,2.00
2017-12-08T04:40:03.866Z,2.83
2017-12-08T04:42:37.519Z,3.83
2017-12-08T04:45:12.010Z,3.33
2017-12-08T04:47:45.949Z,3.00
2017-12-08T04:50:19.488Z,4.00
2017-12-08T04:52:53.240Z,4.17
2017-12-08T04:55:26.915Z,4.17
2017-12-08T04:58:00.566Z,3.33
2017-12-08T05:00:34.133Z,3.67
2017-12-08T05:03:08.025Z,5.17
2017-12-08T05:05:41.792Z,3.17
2017-12-08T05:08:18.380Z,2.00
2017-12-08T05:10:51.948Z,3.33
2017-12-08T05:13:25.497Z,5.67
2017-12-08T05:15:59.320Z,3.17
2017-12-08T05:18:32.951Z,3.17
2017-12-08T05:21:06.609Z,5.00
2017-12-08T05:23:40.223Z,4.50
2017-12-08T05:26:14.895Z,2.83
2017-12-08T05:28:48.846Z,3.33
2017-12-08T05:31:22.956Z,3.33
2017-12-08T05:33:56.586Z,4.17
2017-12-08T05:36:30.104Z,3.17
2017-12-08T05:39:03.624Z,3.33
2017-12-08T05:41:37.620Z,4.17
2017-12-08T05:44:11.368Z,3.33
2017-12-08T05:46:44.994Z,2.83
2017-12-08T05:49:18.635Z,3.50
2017-12-08T05:51:52.449Z,4.83
2017-12-08T05:54:25.975Z,4.00
2017-12-08T05:57:00.046Z,4.83
2017-12-08T05:59:33.712Z,5.33
2017-12-08T06:02:07.249Z,4.50
2017-12-08T06:04:41.158Z,2.00
2017-12-08T06:07:14.653Z,3.33
2017-12-08T06:09:48.509Z,3.33
2017-12-08T06:12:22.524Z,4.00
2017-12-08T06:14:56.115Z,4.83
2017-12-08T06:17:29.658Z,4.00
2017-12-08T06:20:03.308Z,3.50
2017-12-08T06:22:36.865Z,3.50
2017-12-08T06:25:10.475Z,3.50
2017-12-08T06:27:44.703Z,5.00
2017-12-08T06:30:18.584Z,4.33
2017-12-08T06:32:52.109Z,4.17
2017-12-08T06:35:26.801Z,5.00
2017-12-08T06:38:00.564Z,4.00
2017-12-08T06:40:34.080Z,5.17
2017-12-08T06:43:10.092Z,6.00
2017-12-08T06:45:43.908Z,5.00
2017-12-08T06:48:17.807Z,5.00
2017-12-08T06:50:51.496Z,5.50
2017-12-08T06:53:25.053Z,8.00
2017-12-08T06:55:58.611Z,8.33
2017-12-08T06:58:32.163Z,8.33
2017-12-08T07:01:06.041Z,8.50
2017-12-08T07:03:37.816Z,12.00
2017-12-08T07:06:09.621Z,9.00
2017-12-08T07:08:42.622Z,9.00
2017-12-08T07:11:16.420Z,8.67
2017-12-08T07:13:50.443Z,8.00
2017-12-08T07:16:24.863Z,6.00
2017-12-08T07:18:58.684Z,6.00
2017-12-08T07:21:32.445Z,8.00
2017-12-08T07:24:09.833Z,6.00
2017-12-08T07:26:43.555Z,8.83
2017-12-08T07:29:17.439Z,6.00
2017-12-08T07:31:51.169Z,5.50
2017-12-08T07:34:24.997Z,6.33
2017-12-08T07:36:58.703Z,5.17
2017-12-08T07:39:32.724Z,5.17
2017-12-08T07:42:06.416Z,5.67
2017-12-08T07:44:40.133Z,6.33
2017-12-08T07:47:13.790Z,6.00
2017-12-08T07:49:47.504Z,6.33
2017-12-08T07:52:21.088Z,7.17
2017-12-08T07:54:54.990Z,8.17
2017-12-08T07:57:28.874Z,6.00
2017-12-08T08:00:04.321Z,7.00
2017-12-08T08:02:38.059Z,7.17
2017-12-08T08:05:13.700Z,6.33
2017-12-08T08:07:47.600Z,5.83
2017-12-08T08:10:21.241Z,5.00
2017-12-08T08:12:54.911Z,5.83
2017-12-08T08:15:28.740Z,5.83
2017-12-08T08:18:02.993Z,6.00
2017-12-08T08:20:36.656Z,4.50
2017-12-08T08:23:10.211Z,6.00
2017-12-08T08:25:43.927Z,4.83
2017-12-08T08:28:17.777Z,6.83
2017-12-08T08:30:51.936Z,5.00
2017-12-08T08:33:26.058Z,5.00
2017-12-08T08:35:59.708Z,5.00
2017-12-08T08:38:34.059Z,9.14
2017-12-08T08:41:07.677Z,6.67
2017-12-08T08:43:42.031Z,6.86
2017-12-08T08:46:16.768Z,8.33
2017-12-08T08:48:50.606Z,9.00
2017-12-08T08:51:24.182Z,6.83
2017-12-08T08:53:57.991Z,9.00
2017-12-08T08:56:32.300Z,9.43
2017-12-08T08:59:06.010Z,7.17
2017-12-08T09:01:39.670Z,7.67
2017-12-08T09:04:13.337Z,6.33
2017-12-08T09:06:47.170Z,5.50
2017-12-08T09:09:21.294Z,6.83
2017-12-08T09:11:55.089Z,8.33
2017-12-08T09:14:28.060Z,5.60
2017-12-08T09:17:01.690Z,6.00
2017-12-08T09:19:35.330Z,6.00
2017-12-08T09:22:09.548Z,7.00
2017-12-08T09:24:43.284Z,7.83
2017-12-08T09:27:16.814Z,5.17
2017-12-08T09:29:51.983Z,5.00
2017-12-08T09:32:26.742Z,5.00
2017-12-08T09:35:00.782Z,5.33
2017-12-08T09:37:34.495Z,6.67
2017-12-08T09:40:09.683Z,5.00
2017-12-08T09:42:43.505Z,5.00
2017-12-08T09:45:17.530Z,5.00
2017-12-08T09:47:51.137Z,6.33
2017-12-08T09:50:24.738Z,5.33
2017-12-08T09:52:59.244Z,5.29
2017-12-08T09:55:32.896Z,6.17
2017-12-08T09:58:06.461Z,5.67
2017-12-08T10:00:40.452Z,4.50
2017-12-08T10:03:14.052Z,5.00
2017-12-08T10:05:47.580Z,5.00
2017-12-08T10:08:22.457Z,3.86
2017-12-08T10:10:56.015Z,5.67
2017-12-08T10:13:29.723Z,5.00
2017-12-08T10:16:06.463Z,5.50
2017-12-08T10:18:41.806Z,5.00
2017-12-08T10:21:15.610Z,4.50
2017-12-08T10:23:50.231Z,5.33
2017-12-08T10:26:24.007Z,3.33
2017-12-08T10:28:58.107Z,4.33
2017-12-08T10:31:31.789Z,4.83
2017-12-08T10:34:05.511Z,4.00
2017-12-08T10:36:38.936Z,5.00
2017-12-08T10:39:12.640Z,4.33
2017-12-08T10:41:46.985Z,5.17
2017-12-08T10:44:20.747Z,4.00
2017-12-08T10:46:55.237Z,5.00
2017-12-08T10:49:28.723Z,3.33
2017-12-08T10:52:02.350Z,4.17
2017-12-08T10:54:36.354Z,4.33
2017-12-08T10:57:10.097Z,4.50
2017-12-08T10:59:43.555Z,4.00
2017-12-08T11:02:17.097Z,4.67
2017-12-08T11:04:50.764Z,4.33
2017-12-08T11:07:24.558Z,4.00
2017-12-08T11:09:59.164Z,3.67
2017-12-08T11:12:32.953Z,3.50
2017-12-08T11:15:06.820Z,3.50
2017-12-08T11:17:40.839Z,3.83
2017-12-08T11:20:14.964Z,5.50
2017-12-08T11:22:48.569Z,2.00
2017-12-08T11:25:22.640Z,2.83
2017-12-08T11:27:56.216Z,4.50
2017-12-08T11:30:29.856Z,3.83
2017-12-08T11:33:03.495Z,4.17
2017-12-08T11:35:37.181Z,4.83
2017-12-08T11:38:11.103Z,2.83
2017-12-08T11:40:45.248Z,3.50
2017-12-08T11:43:18.895Z,3.83
2017-12-08T11:45:52.706Z,2.17
2017-12-08T11:48:26.435Z,2.00
2017-12-08T11:51:00.199Z,3.00
2017-12-08T11:53:33.890Z,3.33
2017-12-08T11:56:08.048Z,2.50
2017-12-08T11:58:41.991Z,2.00
2017-12-08T12:01:15.550Z,2.00
2017-12-08T12:03:50.087Z,3.17
2017-12-08T12:06:23.697Z,2.00
2017-12-08T12:08:57.621Z,2.00
2017-12-08T12:11:31.213Z,2.00
2017-12-08T12:14:04.868Z,2.00
2017-12-08T12:16:39.071Z,2.17
2017-12-08T12:19:12.967Z,2.00
2017-12-08T12:21:46.691Z,2.83
2017-12-08T12:24:20.242Z,2.17
2017-12-08T12:26:53.885Z,2.83
2017-12-08T12:29:27.499Z,1.83
2017-12-08T12:32:01.641Z,2.00
2017-12-08T12:34:35.619Z,2.00
2017-12-08T12:37:09.339Z,2.00
2017-12-08T12:39:43.307Z,3.00
2017-12-08T12:42:17.021Z,2.00
2017-12-08T12:44:50.737Z,2.00
2017-12-08T12:47:24.314Z,1.17
2017-12-08T12:49:57.859Z,2.67
2017-12-08T12:52:31.494Z,1.00
2017-12-08T12:55:05.105Z,1.67
2017-12-08T12:57:38.801Z,1.83
2017-12-08T13:00:15.529Z,2.00
2017-12-08T13:02:48.960Z,2.00
2017-12-08T13:05:23.199Z,1.50
2017-12-08T13:07:56.604Z,2.00
2017-12-08T13:10:30.600Z,1.00
2017-12-08T13:13:04.203Z,1.00
2017-12-08T13:15:37.847Z,2.50
2017-12-08T13:18:12.067Z,1.50
2017-12-08T13:20:45.580Z,1.83
2017-12-08T13:23:19.329Z,2.00
2017-12-08T13:25:53.325Z,1.67
2017-12-08T13:28:27.053Z,1.83
2017-12-08T13:31:01.076Z,1.50
2017-12-08T13:33:34.612Z,2.17
2017-12-08T13:36:08.133Z,2.00
2017-12-08T13:38:42.044Z,1.00
2017-12-08T13:41:15.870Z,1.33
2017-12-08T13:43:49.345Z,2.00
2017-12-08T13:46:23.504Z,2.00
2017-12-08T13:48:57.278Z,1.50
2017-12-08T13:51:30.865Z,2.00
2017-12-08T13:54:15.262Z,1.67
2017-12-08T13:56:54.920Z,2.00
2017-12-08T13:59:28.550Z,1.50
2017-12-08T14:02:02.095Z,2.00
2017-12-08T14:04:35.629Z,1.00
2017-12-08T14:07:09.326Z,2.00
2017-12-08T14:09:43.306Z,1.00
2017-12-08T14:12:16.928Z,2.00
2017-12-08T14:14:50.758Z,1.17
2017-12-08T14:17:24.547Z,2.33
2017-12-08T14:19:58.573Z,1.00
2017-12-08T14:22:33.664Z,2.00
2017-12-08T14:25:07.718Z,2.00
2017-12-08T14:27:41.309Z,2.00
2017-12-08T14:30:16.994Z,2.00
2017-12-08T14:32:51.471Z,2.00
2017-12-08T14:35:25.565Z,2.00
2017-12-08T14:37:59.252Z,1.33
2017-12-08T14:40:32.866Z,2.00
2017-12-08T14:43:06.903Z,1.17
2017-12-08T14:45:40.635Z,1.33
2017-12-08T14:48:16.393Z,1.83
2017-12-08T14:50:51.276Z,2.00
2017-12-08T14:53:25.834Z,2.00
2017-12-08T14:55:59.930Z,1.00
2017-12-08T14:58:33.486Z,1.00
2017-12-08T15:01:07.237Z,1.17
2017-12-08T15:03:40.774Z,1.83
2017-12-08T15:06:14.414Z,2.00
2017-12-08T15:08:48.410Z,2.00
2017-12-08T15:11:21.854Z,2.00
2017-12-08T15:13:55.452Z,1.50
2017-12-08T15:16:29.139Z,3.00
2017-12-08T15:19:02.866Z,1.83
2017-12-08T15:21:37.261Z,2.00
2017-12-08T15:24:10.838Z,1.83
2017-12-08T15:26:45.608Z,2.33
2017-12-08T15:29:19.673Z,2.00
2017-12-08T15:31:53.979Z,2.00
2017-12-08T15:34:27.914Z,1.50
2017-12-08T15:37:01.667Z,2.00
2017-12-08T15:39:35.637Z,1.67
2017-12-08T15:42:09.802Z,2.00
2017-12-08T15:44:43.623Z,1.50
2017-12-08T15:47:17.085Z,2.00
2017-12-08T15:49:51.493Z,1.67
2017-12-08T15:52:25.500Z,1.17
2017-12-08T15:54:59.276Z,2.00
2017-12-08T15:57:32.957Z,2.00
2017-12-08T16:00:08.441Z,2.00
2017-12-08T16:02:42.512Z,1.83
2017-12-08T16:05:19.778Z,1.00
2017-12-08T16:07:53.626Z,2.67
2017-12-08T16:10:27.115Z,2.17
2017-12-08T16:13:00.748Z,2.00
2017-12-08T16:15:34.566Z,2.00
2017-12-08T16:18:08.190Z,2.00
2017-12-08T16:20:41.751Z,2.00
2017-12-08T16:23:15.219Z,2.00
2017-12-08T16:25:49.220Z,2.00
2017-12-08T16:28:22.869Z,2.50
2017-12-08T16:30:57.759Z,2.00
2017-12-08T16:33:32.322Z,2.50
2017-12-08T16:36:06.321Z,2.00
2017-12-08T16:38:39.900Z,1.83
2017-12-08T16:41:13.985Z,1.50
2017-12-08T16:43:47.694Z,1.00
2017-12-08T16:46:21.840Z,1.00
2017-12-08T16:48:55.459Z,2.00
2017-12-08T16:51:29.099Z,2.17
2017-12-08T16:54:02.808Z,1.67
2017-12-08T16:56:36.570Z,1.17
2017-12-08T16:59:10.394Z,1.83
2017-12-08T17:01:43.991Z,1.00
2017-12-08T17:04:18.067Z,0.50
2017-12-08T17:06:52.282Z,1.00
2017-12-08T17:09:25.897Z,1.83
2017-12-08T17:12:00.524Z,1.67
2017-12-08T17:14:34.155Z,2.00
2017-12-08T17:17:08.205Z,2.00
2017-12-08T17:19:41.948Z,2.00
2017-12-08T17:22:15.777Z,2.00
2017-12-08T17:24:48.729Z,2.00
2017-12-08T17:27:22.714Z,2.33
2017-12-08T17:29:56.773Z,2.00
2017-12-08T17:32:30.543Z,1.83
2017-12-08T17:35:04.455Z,2.00
2017-12-08T17:37:38.752Z,2.00
2017-12-08T17:40:13.241Z,2.00
2017-12-08T17:42:47.046Z,1.83
2017-12-08T17:45:20.964Z,2.17
2017-12-08T17:47:54.682Z,2.17
2017-12-08T17:50:29.640Z,3.00
2017-12-08T17:53:03.110Z,2.83
2017-12-08T17:55:37.674Z,2.00
2017-12-08T17:58:11.295Z,2.00
2017-12-08T18:00:45.142Z,2.67
2017-12-08T18:03:19.426Z,3.00
2017-12-08T18:05:53.059Z,4.00
2017-12-08T18:08:26.679Z,5.00
2017-12-08T18:11:00.478Z,6.33
2017-12-08T18:13:34.170Z,7.50
2017-12-08T18:16:08.049Z,6.33
2017-12-08T18:18:41.908Z,7.17
2017-12-08T18:21:15.624Z,7.00
2017-12-08T18:23:49.316Z,6.17
2017-12-08T18:26:23.338Z,6.33
2017-12-08T18:28:57.326Z,6.50
2017-12-08T18:31:31.464Z,7.00
2017-12-08T18:34:05.101Z,6.83
2017-12-08T18:36:42.378Z,6.00
2017-12-08T18:39:16.204Z,6.00
2017-12-08T18:41:49.946Z,6.33
2017-12-08T18:44:23.605Z,6.67
2017-12-08T18:46:57.654Z,5.67
2017-12-08T18:49:31.358Z,6.83
2017-12-08T18:52:04.978Z,5.33
2017-12-08T18:54:39.959Z,6.50
2017-12-08T18:57:13.618Z,5.00
2017-12-08T18:59:47.720Z,6.00
2017-12-08T19:02:21.374Z,6.17
2017-12-08T19:04:55.619Z,7.33
2017-12-08T19:07:30.410Z,7.83
2017-12-08T19:10:04.135Z,6.67
2017-12-08T19:12:37.940Z,6.17
2017-12-08T19:15:13.265Z,6.33
2017-12-08T19:17:47.032Z,6.33
2017-12-08T19:20:22.102Z,5.67
2017-12-08T19:22:55.815Z,6.83
2017-12-08T19:25:29.417Z,5.17
2017-12-08T19:28:03.358Z,5.00
2017-12-08T19:30:37.011Z,6.00
2017-12-08T19:33:12.065Z,5.57
2017-12-08T19:35:46.081Z,6.00
2017-12-08T19:38:19.925Z,6.00
2017-12-08T19:40:53.697Z,5.00
2017-12-08T19:43:27.780Z,6.17
2017-12-08T19:46:01.492Z,5.33
2017-12-08T19:48:35.082Z,6.67
2017-12-08T19:51:08.642Z,6.00
2017-12-08T19:53:43.184Z,6.00
2017-12-08T19:56:16.980Z,6.00
2017-12-08T19:58:50.646Z,6.83
2017-12-08T20:01:24.674Z,6.00
2017-12-08T20:03:58.576Z,6.00
2017-12-08T20:06:33.232Z,5.83
2017-12-08T20:09:07.065Z,6.00
2017-12-08T20:11:40.633Z,6.67
2017-12-08T20:14:14.541Z,6.00
2017-12-08T20:16:48.416Z,5.50
2017-12-08T20:19:22.065Z,4.33
2017-12-08T20:21:56.553Z,5.67
2017-12-08T20:24:30.160Z,6.00
2017-12-08T20:27:03.852Z,3.50
2017-12-08T20:29:37.676Z,3.00
2017-12-08T20:32:11.343Z,3.00
2017-12-08T20:34:44.945Z,3.00
2017-12-08T20:37:19.103Z,3.00
2017-12-08T20:39:52.750Z,2.17
2017-12-08T20:42:26.576Z,3.00
2017-12-08T20:45:00.419Z,3.17
2017-12-08T20:47:35.364Z,3.00
2017-12-08T20:50:09.030Z,3.00
2017-12-08T20:52:42.933Z,5.00
2017-12-08T20:55:16.911Z,3.00
2017-12-08T20:57:50.582Z,3.67
2017-12-08T21:00:25.422Z,3.00
2017-12-08T21:02:59.219Z,3.00
2017-12-08T21:05:33.196Z,3.33
2017-12-08T21:08:06.874Z,2.33
2017-12-08T21:10:40.922Z,3.67
2017-12-08T21:13:15.093Z,3.00
2017-12-08T21:15:48.716Z,5.17
2017-12-08T21:18:22.579Z,3.83
2017-12-08T21:20:56.283Z,3.00
2017-12-08T21:23:30.106Z,4.83
2017-12-08T21:26:05.625Z,3.00
2017-12-08T21:28:39.203Z,5.00
2017-12-08T21:31:13.232Z,5.00
2017-12-08T21:33:47.309Z,3.33
2017-12-08T21:36:21.087Z,5.50
2017-12-08T21:38:55.434Z,6.00
2017-12-08T21:41:29.106Z,5.00
2017-12-08T21:44:02.731Z,6.00
2017-12-08T21:46:36.402Z,6.50
2017-12-08T21:49:10.298Z,5.17
2017-12-08T21:51:44.179Z,6.50
2017-12-08T21:54:17.873Z,6.33
2017-12-08T21:56:51.667Z,6.17
2017-12-08T21:59:25.259Z,5.67
2017-12-08T22:01:59.233Z,6.00
2017-12-08T22:04:33.219Z,5.33
2017-12-08T22:07:07.264Z,6.00
2017-12-08T22:09:40.993Z,5.17
2017-12-08T22:12:15.233Z,6.17
2017-12-08T22:14:49.423Z,7.00
2017-12-08T22:17:23.171Z,6.50
2017-12-08T22:19:56.693Z,5.00
2017-12-08T22:22:30.330Z,5.00
2017-12-08T22:25:04.083Z,6.00
2017-12-08T22:27:38.093Z,5.83
2017-12-08T22:30:13.235Z,5.00
2017-12-08T22:32:46.849Z,6.67
2017-12-08T22:35:20.395Z,6.33
2017-12-08T22:37:53.925Z,5.00
2017-12-08T22:40:27.628Z,6.00
2017-12-08T22:43:01.804Z,5.17
2017-12-08T22:45:35.346Z,5.83
2017-12-08T22:48:09.101Z,6.50
2017-12-08T22:50:43.120Z,6.17
2017-12-08T22:53:16.816Z,5.00
2017-12-08T22:55:50.506Z,6.00
2017-12-08T22:58:24.457Z,6.67
2017-12-08T23:00:58.946Z,6.86
2017-12-08T23:03:32.730Z,6.33
2017-12-08T23:06:06.365Z,6.50
2017-12-08T23:08:40.133Z,6.67
2017-12-08T23:11:13.728Z,5.83
2017-12-08T23:13:47.996Z,5.00
2017-12-08T23:16:21.600Z,6.67
2017-12-08T23:18:55.385Z,6.50
2017-12-08T23:21:29.498Z,6.50
2017-12-08T23:24:03.248Z,5.50
2017-12-08T23:26:36.813Z,8.33
2017-12-08T23:29:10.621Z,6.67
2017-12-08T23:31:44.307Z,6.33
2017-12-08T23:34:18.602Z,6.00
2017-12-08T23:36:52.268Z,6.00
2017-12-08T23:39:32.998Z,6.67
2017-12-08T23:42:06.613Z,5.00
2017-12-08T23:44:40.298Z,5.50
2017-12-08T23:47:13.826Z,5.33
2017-12-08T23:49:47.435Z,5.67
2017-12-08T23:52:21.391Z,5.83
2017-12-08T23:54:55.169Z,5.33
2017-12-08T23:57:28.895Z,5.17
